Hobbs, NM

3:43 PM MDT on July 25, 2014 (GMT -0600)
NW Hobbs NM (KNMHOBBS3) Elev 3637 ft | 32.74 °N, 103.15 °W | Change Station

Current weather conditions updated 3 seconds ago

Clear
Clear
96.5 °F
Feels Like 94 °F
N
2.0
Wind Variable Wind from WSW
Gusts 11.0 mph

Today is forecast to be nearly the same temperature as yesterday.

Today
High -- | Low -- °F
--% Chance of Precip.
Yesterday
High -- | Low -- °F
Precip. -- in
6:01 AM 7:56 PM
Waning Crescent, 1% visible
Pressure 30.06 in
Visibility 10.0 miles
Clouds Few 10000 ft
Heat Index 94 °F
Dew Point 51 °F
Humidity 22%
Rainfall 0.00 in
Snow Depth Not available.
UV 10 out of 12
Pollen 4.70 out of 12
Air Quality Not available.
Flu Activity Not available.
METAR KHOB 252050Z 10009G16KT 10SM FEW100 35/09 A3006

More Conditions Fewer Conditions

Pressure 30.06 in
Visibility 10.0 miles
Clouds Few 10000 ft
Heat Index 94 °F
Dew Point 51 °F
Humidity 22%
Rainfall 0.00 in
Snow Depth Not available.
UV 10 out of 12
Pollen 4.70 out of 12
Air Quality Not available.
Flu Activity Not available.
METAR KHOB 252050Z 10009G16KT 10SM FEW100 35/09 A3006

More Conditions Fewer Conditions

10-Day Weather Forecast

Almanac

Astronomy

Jul. 25, 2014 Rise Set
Actual Time 6:01 AM MDT 7:56 PM MDT
Civil Twilight 5:34 AM MDT 8:23 PM MDT
Nautical Twilight 5:01 AM MDT 8:56 PM MDT
Astronomical Twilight 4:26 AM MDT 9:31 PM MDT
Moon 5:01 AM MDT 6:57 PM MDT
Length of Visible Light 14h 48m
Length of Day
13h 54m
Tomorrow will be 1m 19s shorter.
Waning Crescent, 1% of the Moon is Illuminated
Today
Waning Crescent
Jul 26
New
Aug 3
First Quarter
Aug 10
Full
Aug 17
Last Quarter

Today's Extremes

State Highs State Lows

Community

WunderPhotos

Upload Photos

1,737,413 photos uploaded!

Nearby

Snow Depth

Station Depth Elevation
Sierra Blanca 0 in 10280 ft
Wesner Springs 0 in 11120 ft
Santa Fe 0 in 11445 ft

Earthquake Activity

City Distance Mag. Time & Date
No recent earthquake activity has been reported nearby.
Minimum magnitude displayed is 2.5.

Coastal Water Temperatures

Place Temperature
No Stations Reporting

Nearby Weather Stations

Station Location Temp. Heat Index Dew Point Humidity Wind Precip. Elev Updated Type
NW Hobbs NM, Hobbs, NM 96.5 °F 94 °F 51 °F 22% WSW  at  2.0 mph 0.00 in / hr 3637 ft 3:42 PM MDT Rapid Fire
South Hobbs Weather, Hobbs, NM 98.2 °F 96 °F 52 °F 21% SSW  at  3.3 mph 0.00 in / hr 3614 ft 3:42 PM MDT Rapid Fire
Knowles, Lovington, NM 94.7 °F 92 °F 52 °F 23% ESE  at  2.0 mph - / hr 3701 ft 3:33 PM MDT Normal
Sixth Grade Academy, Lovington, NM 97.9 °F 95 °F 52 °F 21% SSW  at  0.0 mph - / hr 3934 ft 3:30 PM MDT Normal
WT_Meso Denver City 7W, Denver City, TX 98 °F 94 °F 44 °F 16% SE  at  6 mph 0.00 in / hr 3651 ft 3:55 PM CDT MADIS

Show More Stations Show Fewer Stations